createdAt,value
2023-03-21T00:02:01.150Z,101750.72
2023-03-21T00:04:40.909Z,101748.44
2023-03-21T00:07:11.240Z,101747.78
2023-03-21T00:09:37.667Z,101737.22
2023-03-21T00:12:06.530Z,101736.03
2023-03-21T00:14:33.046Z,101744.97
2023-03-21T00:16:59.528Z,101745.09
2023-03-21T00:19:25.966Z,101733.84
2023-03-21T00:22:06.298Z,101733.84
2023-03-21T00:24:37.338Z,101737.50
2023-03-21T00:27:44.786Z,101722.22
2023-03-21T00:29:53.951Z,101728.03
2023-03-21T00:32:22.025Z,101748.91
2023-03-21T00:35:38.266Z,101727.91
2023-03-21T00:37:37.542Z,101734.00
2023-03-21T00:40:25.466Z,101719.50
2023-03-21T00:42:54.189Z,101726.19
2023-03-21T00:45:20.704Z,101722.53
2023-03-21T00:47:47.513Z,101724.47
2023-03-21T00:50:14.208Z,101720.25
2023-03-21T00:52:42.093Z,101713.38
2023-03-21T00:55:14.532Z,101712.63
2023-03-21T00:57:42.280Z,101711.00
2023-03-21T01:00:10.584Z,101711.66
2023-03-21T01:02:37.142Z,101702.16
2023-03-21T01:05:07.789Z,101690.16
2023-03-21T01:07:34.142Z,101695.19
2023-03-21T01:10:00.712Z,101691.91
2023-03-21T01:12:27.256Z,101672.56
2023-03-21T01:14:53.898Z,101690.28
2023-03-21T01:17:21.303Z,101687.06
2023-03-21T01:19:52.061Z,101678.44
2023-03-21T01:22:19.355Z,101676.88
2023-03-21T01:25:00.537Z,101686.19
2023-03-21T01:27:29.367Z,101680.16
2023-03-21T01:30:00.753Z,101675.75
2023-03-21T01:32:27.175Z,101672.16
2023-03-21T01:34:56.211Z,101662.59
2023-03-21T01:37:25.299Z,101673.28
2023-03-21T01:39:53.272Z,101674.13
2023-03-21T01:42:22.070Z,101671.28
2023-03-21T01:44:57.274Z,101662.81
2023-03-21T01:47:24.314Z,101657.06
2023-03-21T01:49:54.577Z,101664.31
2023-03-21T01:52:37.573Z,101666.59
2023-03-21T01:55:13.138Z,101655.69
2023-03-21T01:57:58.463Z,101646.84
2023-03-21T02:00:30.765Z,101644.13
2023-03-21T02:03:20.969Z,101648.66
2023-03-21T02:06:06.548Z,101638.38
2023-03-21T02:08:39.524Z,101633.97
2023-03-21T02:11:14.415Z,101630.53
2023-03-21T02:13:43.217Z,101623.41
2023-03-21T02:16:29.791Z,101623.16
2023-03-21T02:19:52.785Z,101626.97
2023-03-21T02:22:44.538Z,101621.78
2023-03-21T02:25:43.120Z,101625.13
2023-03-21T02:28:48.268Z,101627.81
2023-03-21T02:31:39.264Z,101620.59
2023-03-21T02:34:33.509Z,101619.84
2023-03-21T02:37:18.087Z,101608.41
2023-03-21T02:39:48.611Z,101608.06
2023-03-21T02:42:44.971Z,101605.38
2023-03-21T02:45:26.665Z,101606.22
2023-03-21T02:48:06.302Z,101610.66
2023-03-21T02:50:40.458Z,101607.22
2023-03-21T02:53:09.587Z,101592.97
2023-03-21T02:55:41.623Z,101605.13
2023-03-21T02:58:13.409Z,101597.28
2023-03-21T03:00:40.984Z,101600.69
2023-03-21T03:03:11.400Z,101597.16
2023-03-21T03:05:58.877Z,101593.47
2023-03-21T03:08:45.234Z,101595.09
2023-03-21T03:11:35.611Z,101587.00
2023-03-21T03:14:39.993Z,101595.19
2023-03-21T03:17:13.304Z,101582.78
2023-03-21T03:20:07.144Z,101590.13
2023-03-21T03:23:03.612Z,101586.13
2023-03-21T03:25:42.814Z,101587.31
2023-03-21T03:28:13.147Z,101590.25
2023-03-21T03:30:51.064Z,101576.75
2023-03-21T03:33:22.015Z,101580.09
2023-03-21T03:35:59.045Z,101588.63
2023-03-21T03:38:32.162Z,101572.16
2023-03-21T03:41:07.491Z,101589.38
2023-03-21T03:43:45.775Z,101577.13
2023-03-21T03:46:18.902Z,101577.00
2023-03-21T03:48:55.500Z,101576.63
2023-03-21T03:51:31.919Z,101574.94
2023-03-21T03:54:04.439Z,101567.66
2023-03-21T03:56:31.341Z,101565.31
2023-03-21T03:58:57.889Z,101556.97
2023-03-21T04:01:24.355Z,101573.66
2023-03-21T04:03:56.441Z,101566.94
2023-03-21T04:06:32.461Z,101565.44
2023-03-21T04:09:13.632Z,101563.94
2023-03-21T04:11:50.498Z,101560.91
2023-03-21T04:14:17.186Z,101565.44
2023-03-21T04:16:46.316Z,101559.19
2023-03-21T04:19:17.231Z,101560.16
2023-03-21T04:21:58.258Z,101550.97
2023-03-21T04:24:26.508Z,101549.63
2023-03-21T04:26:52.891Z,101557.09
2023-03-21T04:29:22.422Z,101534.75
2023-03-21T04:31:53.625Z,101553.50
2023-03-21T04:34:22.984Z,101539.91
2023-03-21T04:36:50.335Z,101547.13
2023-03-21T04:39:24.694Z,101554.78
2023-03-21T04:41:53.329Z,101547.75
2023-03-21T04:44:19.679Z,101541.00
2023-03-21T04:46:46.050Z,101541.50
2023-03-21T04:49:13.196Z,101535.38
2023-03-21T04:51:39.866Z,101537.19
2023-03-21T04:54:06.468Z,101538.91
2023-03-21T04:56:35.377Z,101535.50
2023-03-21T04:59:08.933Z,101539.91
2023-03-21T05:01:35.613Z,101530.41
2023-03-21T05:04:04.699Z,101535.06
2023-03-21T05:06:31.429Z,101542.97
2023-03-21T05:09:02.120Z,101546.63
2023-03-21T05:11:32.616Z,101542.84
2023-03-21T05:14:05.986Z,101547.38
2023-03-21T05:16:45.213Z,101539.50
2023-03-21T05:19:11.675Z,101544.03
2023-03-21T05:21:38.029Z,101539.38
2023-03-21T05:24:04.649Z,101531.53
2023-03-21T05:26:33.425Z,101528.72
2023-03-21T05:29:00.272Z,101527.22
2023-03-21T05:31:26.692Z,101516.66
2023-03-21T05:33:53.506Z,101530.78
2023-03-21T05:36:21.956Z,101529.91
2023-03-21T05:38:49.541Z,101524.00
2023-03-21T05:41:19.412Z,101526.59
2023-03-21T05:43:48.829Z,101525.63
2023-03-21T05:46:19.422Z,101512.47
2023-03-21T05:48:45.860Z,101514.72
2023-03-21T05:51:13.487Z,101517.66
2023-03-21T05:53:40.013Z,101512.25
2023-03-21T05:56:07.422Z,101522.94
2023-03-21T05:58:37.122Z,101519.97
2023-03-21T06:01:10.023Z,101512.88
2023-03-21T06:03:36.626Z,101510.06
2023-03-21T06:06:03.620Z,101518.16
2023-03-21T06:08:30.912Z,101521.69
2023-03-21T06:10:57.551Z,101521.56
2023-03-21T06:13:24.040Z,101501.66
2023-03-21T06:15:53.230Z,101508.91
2023-03-21T06:18:20.955Z,101527.22
2023-03-21T06:20:48.847Z,101520.63
2023-03-21T06:23:15.375Z,101514.72
2023-03-21T06:25:41.836Z,101498.28
2023-03-21T06:28:08.295Z,101513.91
2023-03-21T06:30:39.207Z,101514.22
2023-03-21T06:33:08.143Z,101514.00
2023-03-21T06:35:34.609Z,101512.41
2023-03-21T06:38:01.132Z,101515.72
2023-03-21T06:40:27.815Z,101508.00
2023-03-21T06:42:57.165Z,101520.00
2023-03-21T06:45:28.123Z,101515.59
2023-03-21T06:47:57.617Z,101512.78
2023-03-21T06:50:25.903Z,101518.94
2023-03-21T06:52:56.440Z,101522.88
2023-03-21T06:55:24.171Z,101519.31
2023-03-21T06:57:53.043Z,101523.75
2023-03-21T07:00:22.422Z,101527.78
2023-03-21T07:02:51.178Z,101519.97
2023-03-21T07:05:19.386Z,101511.25
2023-03-21T07:07:45.788Z,101517.63
2023-03-21T07:10:12.490Z,101516.66
2023-03-21T07:12:41.133Z,101520.25
2023-03-21T07:15:11.190Z,101518.50
2023-03-21T07:17:40.786Z,101520.69
2023-03-21T07:20:14.748Z,101522.19
2023-03-21T07:22:51.929Z,101527.84
2023-03-21T07:25:20.653Z,101519.53
2023-03-21T07:27:50.147Z,101533.53
2023-03-21T07:30:20.141Z,101524.69
2023-03-21T07:32:46.569Z,101535.50
2023-03-21T07:35:15.622Z,101537.19
2023-03-21T07:37:53.992Z,101531.34
2023-03-21T07:40:20.459Z,101527.63
2023-03-21T07:42:49.093Z,101534.53
2023-03-21T07:45:19.863Z,101517.56
2023-03-21T07:47:49.922Z,101513.75
2023-03-21T07:50:21.799Z,101522.88
2023-03-21T07:52:57.385Z,101514.50
2023-03-21T07:55:26.909Z,101508.84
2023-03-21T07:57:53.868Z,101511.44
2023-03-21T08:00:21.436Z,101504.94
2023-03-21T08:02:48.102Z,101504.81
2023-03-21T08:05:17.785Z,101500.13
2023-03-21T08:07:48.780Z,101491.91
2023-03-21T08:10:15.313Z,101488.22
2023-03-21T08:12:46.387Z,101502.97
2023-03-21T08:15:14.264Z,101496.69
2023-03-21T08:17:41.348Z,101496.81
2023-03-21T08:20:15.237Z,101496.94
2023-03-21T08:22:42.424Z,101498.78
2023-03-21T08:25:12.597Z,101488.84
2023-03-21T08:27:39.991Z,101488.84
2023-03-21T08:30:07.191Z,101490.44
2023-03-21T08:32:33.664Z,101467.97
2023-03-21T08:35:01.636Z,101479.38
2023-03-21T08:37:30.970Z,101483.94
2023-03-21T08:39:57.390Z,101489.09
2023-03-21T08:42:23.875Z,101493.84
2023-03-21T08:44:50.262Z,101473.00
2023-03-21T08:47:19.199Z,101481.94
2023-03-21T08:49:46.728Z,101474.22
2023-03-21T08:52:18.398Z,101472.63
2023-03-21T08:54:48.492Z,101459.97
2023-03-21T08:57:15.029Z,101465.97
2023-03-21T08:59:43.407Z,101470.41
2023-03-21T09:02:13.781Z,101462.50
2023-03-21T09:04:40.206Z,101450.09
2023-03-21T09:07:07.544Z,101452.69
2023-03-21T09:09:33.993Z,101452.91
2023-03-21T09:12:00.353Z,101447.06
2023-03-21T09:14:29.572Z,101444.56
2023-03-21T09:16:56.086Z,101449.84
2023-03-21T09:19:22.703Z,101426.47
2023-03-21T09:21:54.961Z,101454.53
2023-03-21T09:24:26.108Z,101454.91
2023-03-21T09:26:52.658Z,101432.75
2023-03-21T09:29:19.094Z,101447.88
2023-03-21T09:31:45.668Z,101425.41
2023-03-21T09:34:12.397Z,101410.25
2023-03-21T09:36:42.317Z,101418.38
2023-03-21T09:39:08.647Z,101416.41
2023-03-21T09:42:15.207Z,101413.66
2023-03-21T09:44:50.858Z,101413.06
2023-03-21T09:47:41.846Z,101405.16
2023-03-21T09:50:16.122Z,101414.00
2023-03-21T09:52:58.788Z,101409.78
2023-03-21T09:55:32.962Z,101411.75
2023-03-21T09:58:23.495Z,101414.69
2023-03-21T10:00:52.727Z,101405.59
2023-03-21T10:03:31.527Z,101414.16
2023-03-21T10:06:05.541Z,101398.53
2023-03-21T10:08:34.959Z,101405.41
2023-03-21T10:11:09.761Z,101407.84
2023-03-21T10:13:43.931Z,101407.31
2023-03-21T10:16:28.090Z,101409.63
2023-03-21T10:18:55.422Z,101411.06
2023-03-21T10:21:51.368Z,101410.78
2023-03-21T10:24:26.344Z,101413.13
2023-03-21T10:26:54.402Z,101412.13
2023-03-21T10:29:26.054Z,101406.88
2023-03-21T10:31:54.344Z,101402.88
2023-03-21T10:34:31.606Z,101396.50
2023-03-21T10:37:02.310Z,101382.38
2023-03-21T10:39:40.598Z,101380.34
2023-03-21T10:42:19.416Z,101392.47
2023-03-21T10:44:48.719Z,101385.88
2023-03-21T10:47:41.491Z,101380.78
2023-03-21T10:50:13.736Z,101384.50
2023-03-21T10:53:00.423Z,101385.22
2023-03-21T10:55:33.059Z,101378.91
2023-03-21T10:58:17.138Z,101386.38
2023-03-21T11:00:45.444Z,101395.81
2023-03-21T11:03:24.407Z,101399.81
2023-03-21T11:06:00.577Z,101366.34
2023-03-21T11:08:27.144Z,101375.22
2023-03-21T11:11:04.878Z,101381.75
2023-03-21T11:13:39.645Z,101377.75
2023-03-21T11:16:09.683Z,101371.69
2023-03-21T11:18:50.381Z,101378.84
2023-03-21T11:21:18.522Z,101380.09
2023-03-21T11:23:53.741Z,101365.84
2023-03-21T11:26:37.347Z,101380.72
2023-03-21T11:29:17.296Z,101380.25
2023-03-21T11:31:44.758Z,101364.13
2023-03-21T11:34:26.466Z,101363.56
2023-03-21T11:36:58.976Z,101365.13
2023-03-21T11:39:32.994Z,101356.50
2023-03-21T11:41:59.973Z,101340.69
2023-03-21T11:44:33.630Z,101362.97
2023-03-21T11:47:01.105Z,101345.28
2023-03-21T11:49:28.458Z,101337.53
2023-03-21T11:52:06.367Z,101337.53
2023-03-21T11:54:53.014Z,101352.69
2023-03-21T11:57:43.498Z,101342.81
2023-03-21T12:00:29.718Z,101348.41
2023-03-21T12:03:02.454Z,101344.72
2023-03-21T12:05:34.515Z,101340.25
2023-03-21T12:08:09.313Z,101337.13
2023-03-21T12:10:43.078Z,101344.00
2023-03-21T12:13:28.407Z,101348.72
2023-03-21T12:16:12.340Z,101347.28
2023-03-21T12:19:02.090Z,101336.00
2023-03-21T12:21:42.309Z,101330.44
2023-03-21T12:24:24.900Z,101330.88
2023-03-21T12:27:28.909Z,101323.44
2023-03-21T12:30:30.525Z,101323.41
2023-03-21T12:33:15.134Z,101325.00
2023-03-21T12:36:08.602Z,101314.09
2023-03-21T12:38:47.095Z,101319.69
2023-03-21T12:41:33.356Z,101311.28
2023-03-21T12:44:16.059Z,101309.75
2023-03-21T12:46:53.157Z,101301.38
2023-03-21T12:49:34.408Z,101309.09
2023-03-21T12:52:09.305Z,101301.91
2023-03-21T12:54:40.926Z,101290.88
2023-03-21T12:57:32.889Z,101297.34
2023-03-21T13:00:09.869Z,101302.25
2023-03-21T13:03:03.137Z,101282.25
2023-03-21T13:05:48.099Z,101290.25
2023-03-21T13:08:32.192Z,101278.25
2023-03-21T13:11:02.614Z,101283.19
2023-03-21T13:13:36.018Z,101283.06
2023-03-21T13:16:21.369Z,101274.28
2023-03-21T13:19:05.748Z,101266.31
2023-03-21T13:21:39.565Z,101274.31
2023-03-21T13:24:37.882Z,101262.88
2023-03-21T13:27:31.916Z,101254.75
2023-03-21T13:30:05.992Z,101253.94
2023-03-21T13:32:36.281Z,101265.41
2023-03-21T13:35:15.883Z,101262.75
2023-03-21T13:37:50.815Z,101253.22
2023-03-21T13:40:45.136Z,101253.75
2023-03-21T13:43:39.544Z,101256.13
2023-03-21T13:46:10.054Z,101250.66
2023-03-21T13:48:56.258Z,101250.56
2023-03-21T13:51:36.992Z,101254.72
2023-03-21T13:54:04.845Z,101243.28
2023-03-21T13:56:51.978Z,101229.84
2023-03-21T13:59:37.315Z,101243.53
2023-03-21T14:02:23.959Z,101250.00
2023-03-21T14:05:08.868Z,101240.59
2023-03-21T14:07:47.015Z,101233.34
2023-03-21T14:10:23.970Z,101231.78
2023-03-21T14:12:52.833Z,101221.38
2023-03-21T14:15:54.884Z,101222.94
2023-03-21T14:18:52.234Z,101227.59
2023-03-21T14:21:31.930Z,101228.06
2023-03-21T14:24:11.428Z,101217.34
2023-03-21T14:26:43.728Z,101228.72
2023-03-21T14:29:26.141Z,101223.53
2023-03-21T14:31:54.943Z,101218.72
2023-03-21T14:34:22.087Z,101208.41
2023-03-21T14:36:57.536Z,101205.19
2023-03-21T14:39:33.190Z,101210.34
2023-03-21T14:42:12.244Z,101204.72
2023-03-21T14:44:53.801Z,101199.94
2023-03-21T14:47:24.397Z,101200.69
2023-03-21T14:49:51.283Z,101209.09
2023-03-21T14:52:36.096Z,101199.34
2023-03-21T14:55:11.456Z,101215.75
2023-03-21T14:57:44.145Z,101211.94
2023-03-21T15:00:42.454Z,101213.56
2023-03-21T15:03:14.295Z,101209.06
2023-03-21T15:05:42.176Z,101203.72
2023-03-21T15:08:15.700Z,101208.09
2023-03-21T15:11:06.009Z,101206.50
2023-03-21T15:13:50.615Z,101209.06
2023-03-21T15:16:19.975Z,101197.56
2023-03-21T15:18:49.569Z,101199.06
2023-03-21T15:21:50.427Z,101197.53
2023-03-21T15:24:36.159Z,101182.75
2023-03-21T15:27:15.723Z,101170.94
2023-03-21T15:29:42.461Z,101170.72
2023-03-21T15:32:15.897Z,101168.38
2023-03-21T15:34:43.470Z,101181.50
2023-03-21T15:37:23.067Z,101175.34
2023-03-21T15:39:49.492Z,101166.34
2023-03-21T15:42:35.239Z,101167.81
2023-03-21T15:45:24.781Z,101174.97
2023-03-21T15:47:59.672Z,101177.66
2023-03-21T15:50:35.717Z,101181.88
2023-03-21T15:53:06.727Z,101176.66
2023-03-21T15:56:10.313Z,101190.47
2023-03-21T15:58:41.562Z,101189.00
2023-03-21T16:01:17.361Z,101205.31
2023-03-21T16:03:46.927Z,101203.03
2023-03-21T16:06:18.012Z,101202.88
2023-03-21T16:08:49.360Z,101211.91
2023-03-21T16:11:37.066Z,101209.63
2023-03-21T16:14:03.847Z,101217.94
2023-03-21T16:16:30.850Z,101214.09
2023-03-21T16:19:00.390Z,101224.41
2023-03-21T16:21:32.191Z,101220.31
2023-03-21T16:24:01.314Z,101231.31
2023-03-21T16:26:35.881Z,101221.91
2023-03-21T16:29:06.779Z,101232.66
2023-03-21T16:31:34.981Z,101231.41
2023-03-21T16:34:01.382Z,101234.44
2023-03-21T16:36:35.477Z,101242.16
2023-03-21T16:39:16.585Z,101235.03
2023-03-21T16:41:45.688Z,101228.06
2023-03-21T16:44:14.711Z,101216.19
2023-03-21T16:46:42.435Z,101208.81
2023-03-21T16:49:24.544Z,101210.78
2023-03-21T16:51:53.840Z,101210.50
2023-03-21T16:54:20.679Z,101205.91
2023-03-21T16:56:53.705Z,101201.06
2023-03-21T16:59:22.905Z,101195.94
2023-03-21T17:01:53.049Z,101188.19
2023-03-21T17:04:19.494Z,101189.84
2023-03-21T17:06:49.610Z,101201.94
2023-03-21T17:09:19.472Z,101205.38
2023-03-21T17:11:48.818Z,101208.06
2023-03-21T17:14:15.752Z,101207.34
2023-03-21T17:16:42.231Z,101200.34
2023-03-21T17:19:17.867Z,101203.78
2023-03-21T17:21:47.320Z,101205.63
2023-03-21T17:24:16.448Z,101203.59
2023-03-21T17:26:43.313Z,101190.91
2023-03-21T17:31:55.916Z,101207.03
2023-03-21T17:34:22.424Z,101206.75
2023-03-21T17:36:49.144Z,101209.75
2023-03-21T17:39:24.362Z,101203.31
2023-03-21T17:41:52.435Z,101218.97
2023-03-21T17:44:21.740Z,101209.84
2023-03-21T17:46:57.861Z,101198.88
2023-03-21T17:49:25.561Z,101204.69
2023-03-21T17:51:54.143Z,101191.84
2023-03-21T17:54:20.560Z,101203.25
2023-03-21T17:56:47.322Z,101196.44
2023-03-21T17:59:15.701Z,101197.84
2023-03-21T18:01:43.207Z,101190.59
2023-03-21T18:04:18.537Z,101191.75
2023-03-21T18:06:45.200Z,101191.56
2023-03-21T18:09:14.173Z,101195.13
2023-03-21T18:11:40.742Z,101201.84
2023-03-21T18:14:16.332Z,101200.41
2023-03-21T18:19:31.866Z,101186.72
2023-03-21T18:21:58.194Z,101177.72
2023-03-21T18:24:27.328Z,101183.44
2023-03-21T18:26:59.034Z,101182.69
2023-03-21T18:32:12.113Z,101183.41
2023-03-21T18:34:45.352Z,101180.84
2023-03-21T18:37:16.848Z,101187.25
2023-03-21T18:39:43.497Z,101176.47
2023-03-21T18:42:18.943Z,101176.03
2023-03-21T18:44:50.256Z,101178.59
2023-03-21T18:47:18.552Z,101177.84
2023-03-21T18:52:35.141Z,101182.84
2023-03-21T18:55:01.672Z,101183.72
2023-03-21T18:57:37.047Z,101187.88
2023-03-21T19:00:06.633Z,101185.03
2023-03-21T19:02:33.388Z,101176.31
2023-03-21T19:04:59.864Z,101175.78
2023-03-21T19:07:26.848Z,101191.59
2023-03-21T19:10:15.854Z,101190.47
2023-03-21T19:12:47.558Z,101182.59
2023-03-21T19:15:20.411Z,101192.44
2023-03-21T19:18:26.448Z,101190.72
2023-03-21T19:20:42.037Z,101189.56
2023-03-21T19:23:10.948Z,101188.41
2023-03-21T19:25:40.409Z,101182.84
2023-03-21T19:28:08.929Z,101195.94
2023-03-21T19:30:35.485Z,101190.38
2023-03-21T19:33:01.890Z,101187.09
2023-03-21T19:35:28.878Z,101196.59
2023-03-21T19:37:55.722Z,101187.59
2023-03-21T19:40:31.994Z,101182.75
2023-03-21T19:42:58.844Z,101182.31
2023-03-21T19:45:25.835Z,101179.59
2023-03-21T19:47:52.312Z,101183.31
2023-03-21T19:50:49.205Z,101178.31
2023-03-21T19:53:09.151Z,101186.34
2023-03-21T19:55:35.665Z,101185.91
2023-03-21T19:58:02.142Z,101184.16
2023-03-21T20:00:31.020Z,101188.47
2023-03-21T20:02:57.516Z,101189.66
2023-03-21T20:05:25.505Z,101178.09
2023-03-21T20:07:57.639Z,101176.69
2023-03-21T20:10:27.382Z,101177.25
2023-03-21T20:12:57.838Z,101176.41
2023-03-21T20:15:26.741Z,101167.69
2023-03-21T20:17:55.364Z,101166.25
2023-03-21T20:20:23.829Z,101157.53
2023-03-21T20:23:07.942Z,101170.25
2023-03-21T20:25:37.030Z,101163.66
2023-03-21T20:28:20.129Z,101163.59
2023-03-21T20:30:55.274Z,101155.03
2023-03-21T20:33:24.441Z,101159.63
2023-03-21T20:36:32.896Z,101158.56
2023-03-21T20:38:44.621Z,101151.75
2023-03-21T20:41:14.404Z,101159.56
2023-03-21T20:44:34.400Z,101157.25
2023-03-21T20:46:27.932Z,101148.69
2023-03-21T20:48:55.635Z,101153.16
2023-03-21T20:54:11.104Z,101143.91
2023-03-21T20:56:37.607Z,101137.06
2023-03-21T20:59:16.302Z,101149.44
2023-03-21T21:01:49.448Z,101145.56
2023-03-21T21:04:16.011Z,101139.44
2023-03-21T21:06:42.455Z,101138.00
2023-03-21T21:09:08.875Z,101122.06
2023-03-21T21:12:06.042Z,101124.94
2023-03-21T21:14:24.017Z,101127.22
2023-03-21T21:16:53.409Z,101124.94
2023-03-21T21:19:19.752Z,101127.38
2023-03-21T21:21:46.180Z,101126.03
2023-03-21T21:24:14.648Z,101126.75
2023-03-21T21:26:41.646Z,101115.19
2023-03-21T21:29:07.990Z,101115.19
2023-03-21T21:31:37.031Z,101110.31
2023-03-21T21:34:05.741Z,101120.34
2023-03-21T21:36:34.380Z,101108.41
2023-03-21T21:39:01.827Z,101095.22
2023-03-21T21:41:28.354Z,101101.81
2023-03-21T21:43:55.988Z,101103.53
2023-03-21T21:46:23.320Z,101104.06
2023-03-21T21:48:50.010Z,101093.63
2023-03-21T21:51:19.123Z,101106.44
2023-03-21T21:53:45.500Z,101098.41
2023-03-21T21:56:11.851Z,101095.03
2023-03-21T21:58:40.622Z,101096.16
2023-03-21T22:01:07.331Z,101090.19
2023-03-21T22:03:35.231Z,101106.53
2023-03-21T22:06:02.840Z,101088.91
2023-03-21T22:08:30.507Z,101084.31
2023-03-21T22:10:57.209Z,101096.56
2023-03-21T22:13:23.575Z,101096.41
2023-03-21T22:15:49.900Z,101092.13
2023-03-21T22:18:17.644Z,101079.03
2023-03-21T22:20:44.680Z,101089.31
2023-03-21T22:23:11.246Z,101077.91
2023-03-21T22:25:37.762Z,101080.50
2023-03-21T22:28:06.998Z,101081.50
2023-03-21T22:30:39.656Z,101077.66
2023-03-21T22:33:10.463Z,101084.50
2023-03-21T22:35:38.848Z,101086.34
2023-03-21T22:38:07.816Z,101091.00
2023-03-21T22:40:35.345Z,101076.03
2023-03-21T22:43:01.801Z,101086.06
2023-03-21T22:45:32.361Z,101082.97
2023-03-21T22:48:00.755Z,101081.00
2023-03-21T22:50:32.593Z,101073.47
2023-03-21T22:53:00.781Z,101073.59
2023-03-21T22:55:27.316Z,101068.97
2023-03-21T22:57:53.871Z,101072.53
2023-03-21T23:00:25.061Z,101073.19
2023-03-21T23:02:51.494Z,101061.94
2023-03-21T23:05:19.294Z,101075.19
2023-03-21T23:07:49.140Z,101067.34
2023-03-21T23:10:15.547Z,101073.88
2023-03-21T23:12:41.954Z,101063.44
2023-03-21T23:15:09.244Z,101069.88
2023-03-21T23:17:38.377Z,101068.03
2023-03-21T23:20:05.930Z,101079.16
2023-03-21T23:22:33.201Z,101061.56
2023-03-21T23:25:00.174Z,101056.03
2023-03-21T23:27:29.496Z,101069.88
2023-03-21T23:29:56.278Z,101069.41
2023-03-21T23:32:27.878Z,101074.56
2023-03-21T23:34:54.975Z,101072.72
2023-03-21T23:37:21.500Z,101075.41
2023-03-21T23:39:50.940Z,101075.56
2023-03-21T23:42:17.350Z,101072.72
2023-03-21T23:44:43.766Z,101073.13
2023-03-21T23:47:12.888Z,101065.84
2023-03-21T23:49:39.247Z,101060.88
2023-03-21T23:52:05.615Z,101072.53
2023-03-21T23:54:36.788Z,101069.69
2023-03-21T23:57:03.517Z,101050.97
2023-03-21T23:59:32.511Z,101068.06
